Portada
METAR-TAF:

METAR-TAF

Aeropuertos :

Agen, Francia

latitud: 44-11N, longitud: 000-36E, altitud: 61 m

Observación

El informe se hizo hace 41 minutos, a las 12:00 UTC
Viento 7 kt del este-sureste, variando entre este y sur-sureste
Temperatura 20°C
Humedad 68%
Presión 1019 hPa
Visibilidad 10 km o más
sin nubes por debajo de 1500 m y sin presencia de cumulonimbus.

METAR: LFBA 151200Z AUTO 12007KT 090V150 CAVOK 20/14 Q1019 NOSIG

Hora: 13:41 (12:41 UTC)

Pronóstico

El informe se hizo hace 1 hora y 41 minutos, a las 11:00 UTC
Pronóstico válido del 15 a las 12 UTC al 15 a las 21 UTC
Viento 4 kt del este-sureste
Visibilidad 10 km o más
sin nubes por debajo de 1500 m y sin presencia de cumulonimbus.

TAF: LFBA 151100Z 1512/1521 11004KT CAVOK

Observaciones y pronósticos meteorológicos de más de 4000 aeropuertos (mensajes METAR y TAF).

Los puntos amarillos y rojos representan las estaciones disponibles.

Ponga el ratón en el punto deseado para ver el nombre de la estación.

Haga clic para ver las observaciones y los pronósticos meteorológicos.

Para cambiar el mapa : haga clic en los botones verdes con una cruz de color negro para hacer un zoom, en el botón verde con un guión para alejar o en las flechas verdes para mapas adyacentes.


METAR-TAF: